sensor_id;sensor_type;location;lat;lon;timestamp;P1;durP1;ratioP1;P2;durP2;ratioP2
21677;SDS011;11000;50.360;7.582;2023-05-06T00:01:29;3.50;;;2.53;;
21677;SDS011;11000;50.360;7.582;2023-05-06T00:03:50;2.80;;;2.50;;
21677;SDS011;11000;50.360;7.582;2023-05-06T00:06:10;3.00;;;2.33;;
21677;SDS011;11000;50.360;7.582;2023-05-06T00:08:31;4.47;;;2.80;;
21677;SDS011;11000;50.360;7.582;2023-05-06T00:10:52;4.77;;;2.97;;
21677;SDS011;11000;50.360;7.582;2023-05-06T00:13:12;4.13;;;2.37;;
21677;SDS011;11000;50.360;7.582;2023-05-06T00:15:33;3.37;;;2.60;;
21677;SDS011;11000;50.360;7.582;2023-05-06T00:17:54;2.30;;;2.10;;
21677;SDS011;11000;50.360;7.582;2023-05-06T00:20:15;3.63;;;2.53;;
21677;SDS011;11000;50.360;7.582;2023-05-06T00:22:36;3.60;;;2.20;;
21677;SDS011;11000;50.360;7.582;2023-05-06T00:24:57;3.87;;;2.43;;
21677;SDS011;11000;50.360;7.582;2023-05-06T00:27:17;3.40;;;2.03;;
21677;SDS011;11000;50.360;7.582;2023-05-06T00:29:38;3.13;;;2.10;;
21677;SDS011;11000;50.360;7.582;2023-05-06T00:31:58;3.00;;;2.10;;
21677;SDS011;11000;50.360;7.582;2023-05-06T00:34:19;4.17;;;2.23;;
21677;SDS011;11000;50.360;7.582;2023-05-06T00:36:39;3.60;;;2.23;;
21677;SDS011;11000;50.360;7.582;2023-05-06T00:39:01;3.43;;;2.37;;
21677;SDS011;11000;50.360;7.582;2023-05-06T00:41:22;4.77;;;2.60;;
21677;SDS011;11000;50.360;7.582;2023-05-06T00:43:42;5.07;;;2.40;;
21677;SDS011;11000;50.360;7.582;2023-05-06T00:46:09;3.20;;;2.67;;
21677;SDS011;11000;50.360;7.582;2023-05-06T00:48:30;2.60;;;2.37;;
21677;SDS011;11000;50.360;7.582;2023-05-06T00:50:51;4.27;;;2.97;;
21677;SDS011;11000;50.360;7.582;2023-05-06T00:53:12;2.90;;;2.60;;
21677;SDS011;11000;50.360;7.582;2023-05-06T00:55:32;4.87;;;2.63;;
21677;SDS011;11000;50.360;7.582;2023-05-06T00:57:53;4.30;;;2.60;;
21677;SDS011;11000;50.360;7.582;2023-05-06T01:00:13;4.03;;;2.80;;
21677;SDS011;11000;50.360;7.582;2023-05-06T01:02:34;5.33;;;3.10;;
21677;SDS011;11000;50.360;7.582;2023-05-06T01:04:55;5.43;;;2.87;;
21677;SDS011;11000;50.360;7.582;2023-05-06T01:07:22;5.07;;;3.03;;
21677;SDS011;11000;50.360;7.582;2023-05-06T01:10:16;3.43;;;3.13;;
21677;SDS011;11000;50.360;7.582;2023-05-06T01:12:45;4.93;;;3.10;;
21677;SDS011;11000;50.360;7.582;2023-05-06T01:15:40;4.03;;;3.00;;
21677;SDS011;11000;50.360;7.582;2023-05-06T01:18:07;5.87;;;3.10;;
21677;SDS011;11000;50.360;7.582;2023-05-06T01:20:29;5.07;;;2.90;;
21677;SDS011;11000;50.360;7.582;2023-05-06T01:22:52;2.63;;;2.40;;
21677;SDS011;11000;50.360;7.582;2023-05-06T01:25:16;3.27;;;2.47;;
21677;SDS011;11000;50.360;7.582;2023-05-06T01:27:40;3.27;;;2.50;;
21677;SDS011;11000;50.360;7.582;2023-05-06T01:30:01;3.97;;;2.90;;
21677;SDS011;11000;50.360;7.582;2023-05-06T01:35:39;3.87;;;2.33;;
21677;SDS011;11000;50.360;7.582;2023-05-06T01:38:17;3.83;;;2.73;;
21677;SDS011;11000;50.360;7.582;2023-05-06T01:40:48;4.00;;;2.67;;
21677;SDS011;11000;50.360;7.582;2023-05-06T01:43:13;3.80;;;2.53;;
21677;SDS011;11000;50.360;7.582;2023-05-06T01:45:35;2.73;;;2.30;;
21677;SDS011;11000;50.360;7.582;2023-05-06T01:47:57;4.90;;;2.50;;
21677;SDS011;11000;50.360;7.582;2023-05-06T01:50:18;3.77;;;2.73;;
21677;SDS011;11000;50.360;7.582;2023-05-06T01:52:39;6.30;;;2.90;;
21677;SDS011;11000;50.360;7.582;2023-05-06T01:55:00;6.87;;;2.70;;
21677;SDS011;11000;50.360;7.582;2023-05-06T01:57:20;4.93;;;2.70;;
21677;SDS011;11000;50.360;7.582;2023-05-06T01:59:41;2.33;;;2.13;;
21677;SDS011;11000;50.360;7.582;2023-05-06T02:02:01;4.50;;;2.50;;
21677;SDS011;11000;50.360;7.582;2023-05-06T02:04:22;2.47;;;2.27;;
21677;SDS011;11000;50.360;7.582;2023-05-06T02:06:42;3.10;;;2.57;;
21677;SDS011;11000;50.360;7.582;2023-05-06T02:09:03;2.77;;;2.43;;
21677;SDS011;11000;50.360;7.582;2023-05-06T02:11:23;3.63;;;2.50;;
21677;SDS011;11000;50.360;7.582;2023-05-06T02:13:44;3.40;;;2.57;;
21677;SDS011;11000;50.360;7.582;2023-05-06T02:16:05;2.93;;;2.73;;
21677;SDS011;11000;50.360;7.582;2023-05-06T02:18:26;4.00;;;2.60;;
21677;SDS011;11000;50.360;7.582;2023-05-06T02:20:47;6.43;;;2.40;;
21677;SDS011;11000;50.360;7.582;2023-05-06T02:23:07;3.70;;;2.87;;
21677;SDS011;11000;50.360;7.582;2023-05-06T02:25:28;4.70;;;2.90;;
21677;SDS011;11000;50.360;7.582;2023-05-06T02:27:48;4.90;;;2.80;;
21677;SDS011;11000;50.360;7.582;2023-05-06T02:30:09;2.93;;;2.63;;
21677;SDS011;11000;50.360;7.582;2023-05-06T02:32:30;2.67;;;2.27;;
21677;SDS011;11000;50.360;7.582;2023-05-06T02:34:51;2.40;;;2.30;;
21677;SDS011;11000;50.360;7.582;2023-05-06T02:37:12;2.57;;;2.37;;
21677;SDS011;11000;50.360;7.582;2023-05-06T02:39:32;3.00;;;2.40;;
21677;SDS011;11000;50.360;7.582;2023-05-06T02:41:53;2.80;;;2.47;;
21677;SDS011;11000;50.360;7.582;2023-05-06T02:44:13;3.73;;;2.70;;
21677;SDS011;11000;50.360;7.582;2023-05-06T02:46:34;3.07;;;2.53;;
21677;SDS011;11000;50.360;7.582;2023-05-06T02:48:54;3.60;;;2.57;;
21677;SDS011;11000;50.360;7.582;2023-05-06T02:51:15;3.10;;;2.80;;
21677;SDS011;11000;50.360;7.582;2023-05-06T02:53:35;4.43;;;2.50;;
21677;SDS011;11000;50.360;7.582;2023-05-06T02:55:56;3.07;;;2.77;;
21677;SDS011;11000;50.360;7.582;2023-05-06T02:58:16;4.20;;;2.77;;
21677;SDS011;11000;50.360;7.582;2023-05-06T03:00:37;4.37;;;2.73;;
21677;SDS011;11000;50.360;7.582;2023-05-06T03:02:57;3.30;;;2.70;;
21677;SDS011;11000;50.360;7.582;2023-05-06T03:05:18;2.90;;;2.57;;
21677;SDS011;11000;50.360;7.582;2023-05-06T03:07:38;3.63;;;2.63;;
21677;SDS011;11000;50.360;7.582;2023-05-06T03:10:00;3.33;;;2.73;;
21677;SDS011;11000;50.360;7.582;2023-05-06T03:12:20;2.70;;;2.47;;
21677;SDS011;11000;50.360;7.582;2023-05-06T03:14:40;4.40;;;2.40;;
21677;SDS011;11000;50.360;7.582;2023-05-06T03:17:01;5.63;;;3.07;;
21677;SDS011;11000;50.360;7.582;2023-05-06T03:19:22;4.20;;;2.90;;
21677;SDS011;11000;50.360;7.582;2023-05-06T03:21:42;3.47;;;2.60;;
21677;SDS011;11000;50.360;7.582;2023-05-06T03:24:03;4.07;;;3.03;;
21677;SDS011;11000;50.360;7.582;2023-05-06T03:26:24;11.83;;;2.97;;
21677;SDS011;11000;50.360;7.582;2023-05-06T03:28:45;3.87;;;2.30;;
21677;SDS011;11000;50.360;7.582;2023-05-06T03:31:05;3.27;;;2.50;;
21677;SDS011;11000;50.360;7.582;2023-05-06T03:33:26;2.50;;;2.30;;
21677;SDS011;11000;50.360;7.582;2023-05-06T03:35:46;4.23;;;2.40;;
21677;SDS011;11000;50.360;7.582;2023-05-06T03:38:07;3.90;;;2.30;;
21677;SDS011;11000;50.360;7.582;2023-05-06T03:40:27;5.83;;;2.20;;
21677;SDS011;11000;50.360;7.582;2023-05-06T03:42:48;2.20;;;1.93;;
21677;SDS011;11000;50.360;7.582;2023-05-06T03:45:08;5.23;;;2.43;;
21677;SDS011;11000;50.360;7.582;2023-05-06T03:47:29;4.03;;;2.40;;
21677;SDS011;11000;50.360;7.582;2023-05-06T03:49:49;3.13;;;2.17;;
21677;SDS011;11000;50.360;7.582;2023-05-06T03:52:10;5.53;;;2.60;;
21677;SDS011;11000;50.360;7.582;2023-05-06T03:54:31;4.60;;;2.80;;
21677;SDS011;11000;50.360;7.582;2023-05-06T03:56:51;3.10;;;2.50;;
21677;SDS011;11000;50.360;7.582;2023-05-06T03:59:12;6.27;;;2.93;;
21677;SDS011;11000;50.360;7.582;2023-05-06T04:01:32;3.03;;;2.00;;
21677;SDS011;11000;50.360;7.582;2023-05-06T04:03:54;3.07;;;2.03;;
21677;SDS011;11000;50.360;7.582;2023-05-06T04:06:14;3.27;;;1.80;;
21677;SDS011;11000;50.360;7.582;2023-05-06T04:08:35;2.77;;;2.20;;
21677;SDS011;11000;50.360;7.582;2023-05-06T04:10:55;2.30;;;1.77;;
21677;SDS011;11000;50.360;7.582;2023-05-06T04:13:16;2.90;;;2.13;;
21677;SDS011;11000;50.360;7.582;2023-05-06T04:15:36;2.97;;;1.90;;
21677;SDS011;11000;50.360;7.582;2023-05-06T04:17:57;3.07;;;2.10;;
21677;SDS011;11000;50.360;7.582;2023-05-06T04:20:18;2.87;;;2.00;;
21677;SDS011;11000;50.360;7.582;2023-05-06T04:22:39;3.80;;;2.27;;
21677;SDS011;11000;50.360;7.582;2023-05-06T04:25:00;3.87;;;2.33;;
21677;SDS011;11000;50.360;7.582;2023-05-06T04:27:20;4.03;;;2.10;;
21677;SDS011;11000;50.360;7.582;2023-05-06T04:29:41;3.83;;;1.90;;
21677;SDS011;11000;50.360;7.582;2023-05-06T04:32:01;2.47;;;1.63;;
21677;SDS011;11000;50.360;7.582;2023-05-06T04:34:23;4.47;;;2.23;;
21677;SDS011;11000;50.360;7.582;2023-05-06T04:36:44;3.97;;;2.20;;
21677;SDS011;11000;50.360;7.582;2023-05-06T04:39:06;2.43;;;1.70;;
21677;SDS011;11000;50.360;7.582;2023-05-06T04:41:29;4.47;;;2.10;;
21677;SDS011;11000;50.360;7.582;2023-05-06T04:43:50;2.47;;;2.27;;
21677;SDS011;11000;50.360;7.582;2023-05-06T04:46:10;4.10;;;2.03;;
21677;SDS011;11000;50.360;7.582;2023-05-06T04:48:31;3.97;;;2.10;;
21677;SDS011;11000;50.360;7.582;2023-05-06T04:50:52;4.90;;;2.50;;
21677;SDS011;11000;50.360;7.582;2023-05-06T04:53:13;2.27;;;1.93;;
21677;SDS011;11000;50.360;7.582;2023-05-06T04:55:36;2.70;;;2.13;;
21677;SDS011;11000;50.360;7.582;2023-05-06T04:57:57;4.30;;;2.33;;
21677;SDS011;11000;50.360;7.582;2023-05-06T05:00:17;2.73;;;2.13;;
21677;SDS011;11000;50.360;7.582;2023-05-06T05:02:38;2.17;;;1.97;;
21677;SDS011;11000;50.360;7.582;2023-05-06T05:04:59;3.97;;;2.27;;
21677;SDS011;11000;50.360;7.582;2023-05-06T05:07:19;2.70;;;2.50;;
21677;SDS011;11000;50.360;7.582;2023-05-06T05:09:40;2.93;;;2.23;;
21677;SDS011;11000;50.360;7.582;2023-05-06T05:12:01;2.60;;;1.97;;
21677;SDS011;11000;50.360;7.582;2023-05-06T05:14:22;3.33;;;2.20;;
21677;SDS011;11000;50.360;7.582;2023-05-06T05:16:43;2.27;;;2.07;;
21677;SDS011;11000;50.360;7.582;2023-05-06T05:19:04;3.70;;;2.10;;
21677;SDS011;11000;50.360;7.582;2023-05-06T05:21:25;3.30;;;2.07;;
21677;SDS011;11000;50.360;7.582;2023-05-06T05:23:46;78.10;;;9.90;;
21677;SDS011;11000;50.360;7.582;2023-05-06T05:26:08;3.60;;;2.23;;
21677;SDS011;11000;50.360;7.582;2023-05-06T05:28:29;7.97;;;2.70;;
21677;SDS011;11000;50.360;7.582;2023-05-06T05:30:51;3.00;;;2.50;;
21677;SDS011;11000;50.360;7.582;2023-05-06T05:33:12;2.60;;;2.40;;
21677;SDS011;11000;50.360;7.582;2023-05-06T05:35:33;2.80;;;2.20;;
21677;SDS011;11000;50.360;7.582;2023-05-06T05:37:54;3.03;;;2.73;;
21677;SDS011;11000;50.360;7.582;2023-05-06T05:40:15;5.70;;;2.87;;
21677;SDS011;11000;50.360;7.582;2023-05-06T05:42:36;3.40;;;2.60;;
21677;SDS011;11000;50.360;7.582;2023-05-06T05:44:56;2.97;;;2.47;;
21677;SDS011;11000;50.360;7.582;2023-05-06T05:47:17;3.93;;;2.47;;
21677;SDS011;11000;50.360;7.582;2023-05-06T05:49:38;2.30;;;2.07;;
21677;SDS011;11000;50.360;7.582;2023-05-06T05:52:00;2.70;;;2.27;;
21677;SDS011;11000;50.360;7.582;2023-05-06T05:54:23;3.43;;;2.27;;
21677;SDS011;11000;50.360;7.582;2023-05-06T05:56:44;2.27;;;1.90;;
21677;SDS011;11000;50.360;7.582;2023-05-06T05:59:05;2.37;;;2.20;;
21677;SDS011;11000;50.360;7.582;2023-05-06T06:01:26;2.67;;;2.27;;
21677;SDS011;11000;50.360;7.582;2023-05-06T06:03:46;2.13;;;1.93;;
21677;SDS011;11000;50.360;7.582;2023-05-06T06:06:07;3.43;;;2.10;;
21677;SDS011;11000;50.360;7.582;2023-05-06T06:08:29;2.57;;;1.80;;
21677;SDS011;11000;50.360;7.582;2023-05-06T06:10:51;2.73;;;1.77;;
21677;SDS011;11000;50.360;7.582;2023-05-06T06:13:12;2.43;;;2.07;;
21677;SDS011;11000;50.360;7.582;2023-05-06T06:15:32;3.50;;;2.20;;
21677;SDS011;11000;50.360;7.582;2023-05-06T06:17:53;2.03;;;1.87;;
21677;SDS011;11000;50.360;7.582;2023-05-06T06:20:14;2.80;;;1.87;;
21677;SDS011;11000;50.360;7.582;2023-05-06T06:22:35;2.17;;;1.70;;
21677;SDS011;11000;50.360;7.582;2023-05-06T06:24:56;2.77;;;2.20;;
21677;SDS011;11000;50.360;7.582;2023-05-06T06:27:16;1.90;;;1.80;;
21677;SDS011;11000;50.360;7.582;2023-05-06T06:29:37;3.37;;;1.97;;
21677;SDS011;11000;50.360;7.582;2023-05-06T06:31:58;3.27;;;2.40;;
21677;SDS011;11000;50.360;7.582;2023-05-06T06:34:19;3.77;;;2.27;;
21677;SDS011;11000;50.360;7.582;2023-05-06T06:36:40;2.53;;;2.33;;
21677;SDS011;11000;50.360;7.582;2023-05-06T06:39:04;3.67;;;1.90;;
21677;SDS011;11000;50.360;7.582;2023-05-06T06:41:25;2.40;;;2.13;;
21677;SDS011;11000;50.360;7.582;2023-05-06T06:43:47;3.13;;;2.40;;
21677;SDS011;11000;50.360;7.582;2023-05-06T06:46:10;4.80;;;2.40;;
21677;SDS011;11000;50.360;7.582;2023-05-06T06:48:31;3.70;;;2.90;;
21677;SDS011;11000;50.360;7.582;2023-05-06T06:50:51;3.80;;;2.83;;
21677;SDS011;11000;50.360;7.582;2023-05-06T06:53:12;4.23;;;3.10;;
21677;SDS011;11000;50.360;7.582;2023-05-06T06:55:32;3.97;;;2.87;;
21677;SDS011;11000;50.360;7.582;2023-05-06T06:57:53;2.90;;;2.57;;
21677;SDS011;11000;50.360;7.582;2023-05-06T07:00:18;3.83;;;2.53;;
21677;SDS011;11000;50.360;7.582;2023-05-06T07:02:47;3.33;;;2.70;;
21677;SDS011;11000;50.360;7.582;2023-05-06T07:05:08;7.87;;;2.40;;
21677;SDS011;11000;50.360;7.582;2023-05-06T07:07:29;2.70;;;2.00;;
21677;SDS011;11000;50.360;7.582;2023-05-06T07:09:49;2.80;;;2.47;;
21677;SDS011;11000;50.360;7.582;2023-05-06T07:12:10;22.40;;;9.30;;
21677;SDS011;11000;50.360;7.582;2023-05-06T07:14:31;12.90;;;5.97;;
21677;SDS011;11000;50.360;7.582;2023-05-06T07:16:52;16.70;;;7.87;;
21677;SDS011;11000;50.360;7.582;2023-05-06T07:19:14;3.83;;;2.60;;
21677;SDS011;11000;50.360;7.582;2023-05-06T07:21:35;4.30;;;1.90;;
21677;SDS011;11000;50.360;7.582;2023-05-06T07:23:55;5.20;;;1.80;;
21677;SDS011;11000;50.360;7.582;2023-05-06T07:26:16;2.80;;;1.73;;
21677;SDS011;11000;50.360;7.582;2023-05-06T07:28:37;3.17;;;1.67;;
21677;SDS011;11000;50.360;7.582;2023-05-06T07:30:57;3.10;;;1.90;;
21677;SDS011;11000;50.360;7.582;2023-05-06T07:33:18;2.37;;;1.50;;
21677;SDS011;11000;50.360;7.582;2023-05-06T07:35:40;1.70;;;1.37;;
21677;SDS011;11000;50.360;7.582;2023-05-06T07:38:01;3.03;;;1.40;;
21677;SDS011;11000;50.360;7.582;2023-05-06T07:40:21;1.80;;;1.40;;
21677;SDS011;11000;50.360;7.582;2023-05-06T07:42:42;3.37;;;1.60;;
21677;SDS011;11000;50.360;7.582;2023-05-06T07:45:04;3.87;;;1.50;;
21677;SDS011;11000;50.360;7.582;2023-05-06T07:47:26;1.93;;;1.37;;
21677;SDS011;11000;50.360;7.582;2023-05-06T07:49:48;1.50;;;1.40;;
21677;SDS011;11000;50.360;7.582;2023-05-06T07:52:09;3.13;;;1.23;;
21677;SDS011;11000;50.360;7.582;2023-05-06T07:54:29;1.40;;;1.30;;
21677;SDS011;11000;50.360;7.582;2023-05-06T07:56:50;3.17;;;1.40;;
21677;SDS011;11000;50.360;7.582;2023-05-06T07:59:11;4.00;;;1.40;;
21677;SDS011;11000;50.360;7.582;2023-05-06T08:01:31;1.20;;;1.00;;
21677;SDS011;11000;50.360;7.582;2023-05-06T08:03:52;1.50;;;1.17;;
21677;SDS011;11000;50.360;7.582;2023-05-06T08:06:12;1.70;;;0.93;;
21677;SDS011;11000;50.360;7.582;2023-05-06T08:08:33;1.70;;;0.80;;
21677;SDS011;11000;50.360;7.582;2023-05-06T08:10:56;2.90;;;1.30;;
21677;SDS011;11000;50.360;7.582;2023-05-06T08:13:17;0.97;;;0.90;;
21677;SDS011;11000;50.360;7.582;2023-05-06T08:15:38;1.50;;;1.23;;
21677;SDS011;11000;50.360;7.582;2023-05-06T08:17:59;2.00;;;0.83;;
21677;SDS011;11000;50.360;7.582;2023-05-06T08:20:19;0.77;;;0.70;;
21677;SDS011;11000;50.360;7.582;2023-05-06T08:22:40;1.00;;;0.70;;
21677;SDS011;11000;50.360;7.582;2023-05-06T08:25:01;1.10;;;0.60;;
21677;SDS011;11000;50.360;7.582;2023-05-06T08:27:22;2.17;;;0.60;;
21677;SDS011;11000;50.360;7.582;2023-05-06T08:29:43;1.30;;;1.20;;
21677;SDS011;11000;50.360;7.582;2023-05-06T08:32:03;2.03;;;0.80;;
21677;SDS011;11000;50.360;7.582;2023-05-06T08:34:24;0.90;;;0.70;;
21677;SDS011;11000;50.360;7.582;2023-05-06T08:36:44;0.93;;;0.50;;
21677;SDS011;11000;50.360;7.582;2023-05-06T08:39:05;1.40;;;0.60;;
21677;SDS011;11000;50.360;7.582;2023-05-06T08:41:26;1.67;;;0.67;;
21677;SDS011;11000;50.360;7.582;2023-05-06T08:43:49;0.77;;;0.50;;
21677;SDS011;11000;50.360;7.582;2023-05-06T08:46:10;2.33;;;0.57;;
21677;SDS011;11000;50.360;7.582;2023-05-06T08:48:31;1.23;;;0.77;;
21677;SDS011;11000;50.360;7.582;2023-05-06T08:50:52;0.80;;;0.80;;
21677;SDS011;11000;50.360;7.582;2023-05-06T08:53:16;1.60;;;1.20;;
21677;SDS011;11000;50.360;7.582;2023-05-06T08:55:39;1.40;;;1.03;;
21677;SDS011;11000;50.360;7.582;2023-05-06T08:58:00;2.27;;;1.20;;
21677;SDS011;11000;50.360;7.582;2023-05-06T09:00:25;1.00;;;0.83;;
21677;SDS011;11000;50.360;7.582;2023-05-06T09:02:46;0.70;;;0.70;;
21677;SDS011;11000;50.360;7.582;2023-05-06T09:05:07;0.83;;;0.77;;
21677;SDS011;11000;50.360;7.582;2023-05-06T09:07:29;1.37;;;0.80;;
21677;SDS011;11000;50.360;7.582;2023-05-06T09:09:50;1.20;;;0.80;;
21677;SDS011;11000;50.360;7.582;2023-05-06T09:12:11;1.57;;;0.57;;
21677;SDS011;11000;50.360;7.582;2023-05-06T09:14:33;2.10;;;0.67;;
21677;SDS011;11000;50.360;7.582;2023-05-06T09:16:53;0.50;;;0.40;;
21677;SDS011;11000;50.360;7.582;2023-05-06T09:19:15;1.10;;;0.50;;
21677;SDS011;11000;50.360;7.582;2023-05-06T09:21:38;0.60;;;0.40;;
21677;SDS011;11000;50.360;7.582;2023-05-06T09:24:00;0.60;;;0.60;;
21677;SDS011;11000;50.360;7.582;2023-05-06T09:26:22;0.63;;;0.43;;
21677;SDS011;11000;50.360;7.582;2023-05-06T09:28:44;0.60;;;0.50;;
21677;SDS011;11000;50.360;7.582;2023-05-06T09:31:06;1.67;;;0.60;;
21677;SDS011;11000;50.360;7.582;2023-05-06T09:33:26;1.37;;;0.50;;
21677;SDS011;11000;50.360;7.582;2023-05-06T09:35:47;1.13;;;0.40;;
21677;SDS011;11000;50.360;7.582;2023-05-06T09:38:09;1.00;;;0.70;;
21677;SDS011;11000;50.360;7.582;2023-05-06T09:40:30;0.53;;;0.50;;
21677;SDS011;11000;50.360;7.582;2023-05-06T09:42:50;1.13;;;0.50;;
21677;SDS011;11000;50.360;7.582;2023-05-06T09:45:11;1.07;;;0.70;;
21677;SDS011;11000;50.360;7.582;2023-05-06T09:47:35;0.70;;;0.50;;
21677;SDS011;11000;50.360;7.582;2023-05-06T09:49:57;0.80;;;0.50;;
21677;SDS011;11000;50.360;7.582;2023-05-06T09:52:18;0.93;;;0.33;;
21677;SDS011;11000;50.360;7.582;2023-05-06T09:54:39;0.80;;;0.53;;
21677;SDS011;11000;50.360;7.582;2023-05-06T09:57:00;0.67;;;0.53;;
21677;SDS011;11000;50.360;7.582;2023-05-06T09:59:23;0.70;;;0.50;;
21677;SDS011;11000;50.360;7.582;2023-05-06T10:01:46;1.27;;;0.60;;
21677;SDS011;11000;50.360;7.582;2023-05-06T10:04:08;2.77;;;0.70;;
21677;SDS011;11000;50.360;7.582;2023-05-06T10:06:31;1.63;;;0.80;;
21677;SDS011;11000;50.360;7.582;2023-05-06T10:08:55;2.50;;;0.90;;
21677;SDS011;11000;50.360;7.582;2023-05-06T10:11:16;1.63;;;0.67;;
21677;SDS011;11000;50.360;7.582;2023-05-06T10:13:39;0.97;;;0.50;;
21677;SDS011;11000;50.360;7.582;2023-05-06T10:16:00;0.43;;;0.43;;
21677;SDS011;11000;50.360;7.582;2023-05-06T10:18:21;0.73;;;0.57;;
21677;SDS011;11000;50.360;7.582;2023-05-06T10:20:46;1.33;;;0.87;;
21677;SDS011;11000;50.360;7.582;2023-05-06T10:25:38;0.70;;;0.50;;
21677;SDS011;11000;50.360;7.582;2023-05-06T10:28:04;0.40;;;0.40;;
21677;SDS011;11000;50.360;7.582;2023-05-06T10:30:26;1.87;;;0.83;;
21677;SDS011;11000;50.360;7.582;2023-05-06T10:32:48;2.63;;;0.50;;
21677;SDS011;11000;50.360;7.582;2023-05-06T10:37:54;2.00;;;0.87;;
21677;SDS011;11000;50.360;7.582;2023-05-06T10:40:16;0.97;;;0.50;;
21677;SDS011;11000;50.360;7.582;2023-05-06T10:42:36;1.93;;;0.50;;
21677;SDS011;11000;50.360;7.582;2023-05-06T10:45:04;1.27;;;0.77;;
21677;SDS011;11000;50.360;7.582;2023-05-06T10:47:25;0.70;;;0.63;;
21677;SDS011;11000;50.360;7.582;2023-05-06T10:52:45;1.00;;;0.73;;
21677;SDS011;11000;50.360;7.582;2023-05-06T10:55:23;3.40;;;0.60;;
21677;SDS011;11000;50.360;7.582;2023-05-06T10:57:43;1.77;;;0.50;;
21677;SDS011;11000;50.360;7.582;2023-05-06T11:00:04;1.30;;;0.70;;
21677;SDS011;11000;50.360;7.582;2023-05-06T11:02:29;1.47;;;0.60;;
21677;SDS011;11000;50.360;7.582;2023-05-06T11:04:50;1.63;;;0.50;;
21677;SDS011;11000;50.360;7.582;2023-05-06T11:07:22;1.50;;;0.30;;
21677;SDS011;11000;50.360;7.582;2023-05-06T11:09:59;0.80;;;0.50;;
21677;SDS011;11000;50.360;7.582;2023-05-06T11:12:21;0.50;;;0.47;;
21677;SDS011;11000;50.360;7.582;2023-05-06T11:15:17;0.53;;;0.50;;
21677;SDS011;11000;50.360;7.582;2023-05-06T11:17:45;3.50;;;1.47;;
21677;SDS011;11000;50.360;7.582;2023-05-06T11:20:19;1.90;;;1.30;;
21677;SDS011;11000;50.360;7.582;2023-05-06T11:22:41;1.20;;;0.60;;
21677;SDS011;11000;50.360;7.582;2023-05-06T11:25:03;1.60;;;0.73;;
21677;SDS011;11000;50.360;7.582;2023-05-06T11:27:25;1.60;;;0.67;;
21677;SDS011;11000;50.360;7.582;2023-05-06T11:29:48;1.33;;;0.40;;
21677;SDS011;11000;50.360;7.582;2023-05-06T11:32:21;1.70;;;0.50;;
21677;SDS011;11000;50.360;7.582;2023-05-06T11:34:43;1.10;;;0.60;;
21677;SDS011;11000;50.360;7.582;2023-05-06T11:37:05;1.50;;;0.40;;
21677;SDS011;11000;50.360;7.582;2023-05-06T11:39:27;1.83;;;0.43;;
21677;SDS011;11000;50.360;7.582;2023-05-06T11:41:51;1.53;;;0.70;;
21677;SDS011;11000;50.360;7.582;2023-05-06T11:44:22;0.57;;;0.50;;
21677;SDS011;11000;50.360;7.582;2023-05-06T11:46:43;1.80;;;0.70;;
21677;SDS011;11000;50.360;7.582;2023-05-06T11:49:04;1.03;;;0.60;;
21677;SDS011;11000;50.360;7.582;2023-05-06T11:51:25;2.13;;;0.90;;
21677;SDS011;11000;50.360;7.582;2023-05-06T11:53:46;0.50;;;0.43;;
21677;SDS011;11000;50.360;7.582;2023-05-06T11:56:07;1.70;;;0.40;;
21677;SDS011;11000;50.360;7.582;2023-05-06T11:58:28;0.77;;;0.50;;
21677;SDS011;11000;50.360;7.582;2023-05-06T12:00:55;0.77;;;0.50;;
21677;SDS011;11000;50.360;7.582;2023-05-06T12:03:20;0.60;;;0.60;;
21677;SDS011;11000;50.360;7.582;2023-05-06T12:05:42;0.93;;;0.40;;
21677;SDS011;11000;50.360;7.582;2023-05-06T12:08:04;1.57;;;0.80;;
21677;SDS011;11000;50.360;7.582;2023-05-06T12:10:25;0.67;;;0.50;;
21677;SDS011;11000;50.360;7.582;2023-05-06T12:12:48;0.77;;;0.40;;
21677;SDS011;11000;50.360;7.582;2023-05-06T12:15:12;0.87;;;0.57;;
21677;SDS011;11000;50.360;7.582;2023-05-06T12:17:33;0.77;;;0.40;;
21677;SDS011;11000;50.360;7.582;2023-05-06T12:19:54;2.37;;;0.60;;
21677;SDS011;11000;50.360;7.582;2023-05-06T12:22:16;2.37;;;0.60;;
21677;SDS011;11000;50.360;7.582;2023-05-06T12:24:40;1.10;;;0.50;;
21677;SDS011;11000;50.360;7.582;2023-05-06T12:27:01;2.70;;;0.60;;
21677;SDS011;11000;50.360;7.582;2023-05-06T12:29:21;0.63;;;0.63;;
21677;SDS011;11000;50.360;7.582;2023-05-06T12:31:43;0.50;;;0.50;;
21677;SDS011;11000;50.360;7.582;2023-05-06T12:34:06;1.47;;;0.50;;
21677;SDS011;11000;50.360;7.582;2023-05-06T12:36:27;1.33;;;0.63;;
21677;SDS011;11000;50.360;7.582;2023-05-06T12:38:49;0.63;;;0.47;;
21677;SDS011;11000;50.360;7.582;2023-05-06T12:41:11;0.70;;;0.53;;
21677;SDS011;11000;50.360;7.582;2023-05-06T12:43:32;1.60;;;0.30;;
21677;SDS011;11000;50.360;7.582;2023-05-06T12:46:05;2.23;;;0.70;;
21677;SDS011;11000;50.360;7.582;2023-05-06T12:48:26;0.77;;;0.53;;
21677;SDS011;11000;50.360;7.582;2023-05-06T12:50:47;1.33;;;0.70;;
21677;SDS011;11000;50.360;7.582;2023-05-06T12:53:10;1.30;;;0.63;;
21677;SDS011;11000;50.360;7.582;2023-05-06T12:55:35;1.53;;;0.73;;
21677;SDS011;11000;50.360;7.582;2023-05-06T12:57:57;0.80;;;0.60;;
21677;SDS011;11000;50.360;7.582;2023-05-06T13:00:18;0.70;;;0.40;;
21677;SDS011;11000;50.360;7.582;2023-05-06T13:02:39;1.63;;;0.57;;
21677;SDS011;11000;50.360;7.582;2023-05-06T13:05:00;0.80;;;0.40;;
21677;SDS011;11000;50.360;7.582;2023-05-06T13:07:21;0.50;;;0.40;;
21677;SDS011;11000;50.360;7.582;2023-05-06T13:09:41;1.60;;;0.43;;
21677;SDS011;11000;50.360;7.582;2023-05-06T13:12:03;0.63;;;0.43;;
21677;SDS011;11000;50.360;7.582;2023-05-06T13:14:24;0.50;;;0.50;;
21677;SDS011;11000;50.360;7.582;2023-05-06T13:16:45;2.03;;;0.70;;
21677;SDS011;11000;50.360;7.582;2023-05-06T13:19:07;0.97;;;0.50;;
21677;SDS011;11000;50.360;7.582;2023-05-06T13:21:30;0.77;;;0.47;;
21677;SDS011;11000;50.360;7.582;2023-05-06T13:23:52;1.03;;;0.50;;
21677;SDS011;11000;50.360;7.582;2023-05-06T13:26:13;3.80;;;0.80;;
21677;SDS011;11000;50.360;7.582;2023-05-06T13:28:34;1.30;;;0.50;;
21677;SDS011;11000;50.360;7.582;2023-05-06T13:30:56;1.03;;;0.60;;
21677;SDS011;11000;50.360;7.582;2023-05-06T13:33:17;0.53;;;0.50;;
21677;SDS011;11000;50.360;7.582;2023-05-06T13:35:40;2.10;;;0.60;;
21677;SDS011;11000;50.360;7.582;2023-05-06T13:38:01;1.90;;;0.70;;
21677;SDS011;11000;50.360;7.582;2023-05-06T13:40:24;2.60;;;0.60;;
21677;SDS011;11000;50.360;7.582;2023-05-06T13:42:45;0.60;;;0.50;;
21677;SDS011;11000;50.360;7.582;2023-05-06T13:45:06;1.90;;;0.60;;
21677;SDS011;11000;50.360;7.582;2023-05-06T13:47:27;1.43;;;0.50;;
21677;SDS011;11000;50.360;7.582;2023-05-06T13:49:48;1.10;;;0.50;;
21677;SDS011;11000;50.360;7.582;2023-05-06T13:52:09;1.63;;;0.60;;
21677;SDS011;11000;50.360;7.582;2023-05-06T13:54:29;1.40;;;0.77;;
21677;SDS011;11000;50.360;7.582;2023-05-06T13:56:49;1.03;;;0.60;;
21677;SDS011;11000;50.360;7.582;2023-05-06T13:59:10;0.70;;;0.50;;
21677;SDS011;11000;50.360;7.582;2023-05-06T14:01:32;4.33;;;0.80;;
21677;SDS011;11000;50.360;7.582;2023-05-06T14:03:53;1.90;;;0.50;;
21677;SDS011;11000;50.360;7.582;2023-05-06T14:06:13;1.03;;;0.67;;
21677;SDS011;11000;50.360;7.582;2023-05-06T14:08:34;1.00;;;0.53;;
21677;SDS011;11000;50.360;7.582;2023-05-06T14:10:55;1.17;;;0.50;;
21677;SDS011;11000;50.360;7.582;2023-05-06T14:13:15;2.77;;;1.50;;
21677;SDS011;11000;50.360;7.582;2023-05-06T14:15:36;0.83;;;0.77;;
21677;SDS011;11000;50.360;7.582;2023-05-06T14:17:56;1.23;;;0.70;;
21677;SDS011;11000;50.360;7.582;2023-05-06T14:20:17;0.80;;;0.53;;
21677;SDS011;11000;50.360;7.582;2023-05-06T14:22:38;2.10;;;0.70;;
21677;SDS011;11000;50.360;7.582;2023-05-06T14:25:00;1.40;;;0.70;;
21677;SDS011;11000;50.360;7.582;2023-05-06T14:27:20;1.87;;;0.67;;